KLEX/LEX METAR and TAF weather

Enter ICAO airport designator
Station Type Date Time Source
KLEX METAR 2020/07/06 01:36 UTC NOAA

KLEX 060136Z 16006KT 10SM -TSRA SCT048 OVC110 23/20 A2999 RMK AO2 WSHFT 0100 TSB0058E13B24 P0049 T02280200


Station Type Date Time Source
KLEX Decoded METAR 2020/07/06 01:36 UTC NOAA

LEXINGTON BLUE GRASS AIRPORT, KY, United States (KLEX) 38-02N 084-36W 300M
Jul 05, 2020 - 09:36 PM EDT / 2020.07.06 0136 UTC
Wind: from the SSE (160 degrees) at 7 MPH (6 KT):0
Visibility: 10 mile(s):0
Sky conditions: overcast
Weather: light rain with thunder
Precipitation last hour: 0.49 inches
Temperature: 73.0 F (22.8 C)
Dew Point: 68.0 F (20.0 C)
Relative Humidity: 84%
Pressure (altimeter): 29.99 in. Hg (1015 hPa)
ob: KLEX 060136Z 16006KT 10SM -TSRA SCT048 OVC110 23/20 A2999 RMK AO2 WSHFT 0100 TSB0058E13B24 P0049 T02280200
cycle: 1

Station Type Date Time Source
KLEX TAF 2020/07/06 00:27 UTC NOAA

TAF
AMD KLEX 060025Z 0600/0624 VRB04KT P6SM VCTS OVC060CB
TEMPO 0601/0602 VRB10G20KT 3SM -TSRA OVC040CB
FM060230 VRB03KT P6SM BKN200
FM060800 00000KT 3SM BR SCT200
FM061300 19005KT P6SM SCT170

Example: see airport list